sensor_id;sensor_type;location;lat;lon;timestamp;P1;durP1;ratioP1;P2;durP2;ratioP2
54871;SDS011;43914;57.680;11.982;2022-09-09T00:04:42;2.92;;;1.00;;
54871;SDS011;43914;57.680;11.982;2022-09-09T00:07:27;3.37;;;1.10;;
54871;SDS011;43914;57.680;11.982;2022-09-09T00:21:43;4.12;;;1.20;;
54871;SDS011;43914;57.680;11.982;2022-09-09T00:24:32;3.75;;;1.12;;
54871;SDS011;43914;57.680;11.982;2022-09-09T00:32:55;3.60;;;1.20;;
54871;SDS011;43914;57.680;11.982;2022-09-09T00:35:32;3.52;;;1.17;;
54871;SDS011;43914;57.680;11.982;2022-09-09T00:38:12;3.87;;;1.20;;
54871;SDS011;43914;57.680;11.982;2022-09-09T00:40:50;3.33;;;1.10;;
54871;SDS011;43914;57.680;11.982;2022-09-09T00:43:42;4.50;;;1.10;;
54871;SDS011;43914;57.680;11.982;2022-09-09T00:49:41;4.92;;;1.10;;
54871;SDS011;43914;57.680;11.982;2022-09-09T00:53:05;3.10;;;1.20;;
54871;SDS011;43914;57.680;11.982;2022-09-09T00:57:47;4.50;;;1.12;;
54871;SDS011;43914;57.680;11.982;2022-09-09T01:17:28;2.52;;;1.00;;
54871;SDS011;43914;57.680;11.982;2022-09-09T01:20:10;4.87;;;1.00;;
54871;SDS011;43914;57.680;11.982;2022-09-09T01:22:52;3.17;;;1.10;;
54871;SDS011;43914;57.680;11.982;2022-09-09T01:28:29;4.12;;;1.27;;
54871;SDS011;43914;57.680;11.982;2022-09-09T01:30:57;4.83;;;1.30;;
54871;SDS011;43914;57.680;11.982;2022-09-09T01:33:24;6.47;;;1.25;;
54871;SDS011;43914;57.680;11.982;2022-09-09T01:35:52;5.08;;;1.10;;
54871;SDS011;43914;57.680;11.982;2022-09-09T01:38:26;3.75;;;1.27;;
54871;SDS011;43914;57.680;11.982;2022-09-09T01:40:54;5.70;;;1.37;;
54871;SDS011;43914;57.680;11.982;2022-09-09T01:43:21;3.65;;;1.17;;
54871;SDS011;43914;57.680;11.982;2022-09-09T01:45:50;3.83;;;1.20;;
54871;SDS011;43914;57.680;11.982;2022-09-09T01:48:20;4.17;;;1.30;;
54871;SDS011;43914;57.680;11.982;2022-09-09T01:50:53;4.97;;;1.30;;
54871;SDS011;43914;57.680;11.982;2022-09-09T01:53:20;4.00;;;1.25;;
54871;SDS011;43914;57.680;11.982;2022-09-09T01:55:54;3.72;;;1.20;;
54871;SDS011;43914;57.680;11.982;2022-09-09T02:01:21;3.80;;;1.20;;
54871;SDS011;43914;57.680;11.982;2022-09-09T02:03:52;5.20;;;1.20;;
54871;SDS011;43914;57.680;11.982;2022-09-09T02:06:35;3.42;;;1.15;;
54871;SDS011;43914;57.680;11.982;2022-09-09T02:09:09;3.83;;;1.12;;
54871;SDS011;43914;57.680;11.982;2022-09-09T02:11:37;5.92;;;1.52;;
54871;SDS011;43914;57.680;11.982;2022-09-09T02:14:12;5.45;;;1.30;;
54871;SDS011;43914;57.680;11.982;2022-09-09T02:16:50;5.08;;;1.70;;
54871;SDS011;43914;57.680;11.982;2022-09-09T02:22:02;5.55;;;1.40;;
54871;SDS011;43914;57.680;11.982;2022-09-09T02:24:30;4.95;;;1.20;;
54871;SDS011;43914;57.680;11.982;2022-09-09T02:27:01;4.62;;;1.30;;
54871;SDS011;43914;57.680;11.982;2022-09-09T02:29:33;4.33;;;1.20;;
54871;SDS011;43914;57.680;11.982;2022-09-09T02:32:05;3.40;;;1.20;;
54871;SDS011;43914;57.680;11.982;2022-09-09T02:34:36;4.40;;;1.25;;
54871;SDS011;43914;57.680;11.982;2022-09-09T02:37:13;3.70;;;1.20;;
54871;SDS011;43914;57.680;11.982;2022-09-09T02:39:46;5.17;;;1.27;;
54871;SDS011;43914;57.680;11.982;2022-09-09T02:42:13;4.15;;;1.35;;
54871;SDS011;43914;57.680;11.982;2022-09-09T02:44:40;4.03;;;1.40;;
54871;SDS011;43914;57.680;11.982;2022-09-09T02:47:16;5.28;;;1.40;;
54871;SDS011;43914;57.680;11.982;2022-09-09T02:50:20;4.28;;;1.30;;
54871;SDS011;43914;57.680;11.982;2022-09-09T02:53:19;4.03;;;1.25;;
54871;SDS011;43914;57.680;11.982;2022-09-09T02:55:41;4.45;;;1.20;;
54871;SDS011;43914;57.680;11.982;2022-09-09T02:58:16;3.20;;;1.15;;
54871;SDS011;43914;57.680;11.982;2022-09-09T03:00:45;3.83;;;1.22;;
54871;SDS011;43914;57.680;11.982;2022-09-09T03:03:13;3.42;;;1.20;;
54871;SDS011;43914;57.680;11.982;2022-09-09T03:05:42;3.80;;;1.17;;
54871;SDS011;43914;57.680;11.982;2022-09-09T03:08:09;7.72;;;1.50;;
54871;SDS011;43914;57.680;11.982;2022-09-09T03:10:35;4.53;;;1.30;;
54871;SDS011;43914;57.680;11.982;2022-09-09T03:13:08;4.87;;;1.32;;
54871;SDS011;43914;57.680;11.982;2022-09-09T03:15:34;3.65;;;1.27;;
54871;SDS011;43914;57.680;11.982;2022-09-09T03:18:01;6.22;;;1.40;;
54871;SDS011;43914;57.680;11.982;2022-09-09T03:20:28;4.53;;;1.40;;
54871;SDS011;43914;57.680;11.982;2022-09-09T03:22:55;4.35;;;1.25;;
54871;SDS011;43914;57.680;11.982;2022-09-09T03:25:23;4.62;;;1.40;;
54871;SDS011;43914;57.680;11.982;2022-09-09T03:27:51;3.92;;;1.42;;
54871;SDS011;43914;57.680;11.982;2022-09-09T03:30:20;4.37;;;1.55;;
54871;SDS011;43914;57.680;11.982;2022-09-09T03:32:48;3.25;;;1.20;;
54871;SDS011;43914;57.680;11.982;2022-09-09T03:35:14;3.47;;;1.27;;
54871;SDS011;43914;57.680;11.982;2022-09-09T03:37:42;5.08;;;1.35;;
54871;SDS011;43914;57.680;11.982;2022-09-09T03:40:09;5.55;;;1.42;;
54871;SDS011;43914;57.680;11.982;2022-09-09T03:42:36;4.47;;;1.42;;
54871;SDS011;43914;57.680;11.982;2022-09-09T03:45:04;5.22;;;1.50;;
54871;SDS011;43914;57.680;11.982;2022-09-09T03:47:32;4.60;;;1.50;;
54871;SDS011;43914;57.680;11.982;2022-09-09T03:49:59;4.40;;;1.20;;
54871;SDS011;43914;57.680;11.982;2022-09-09T03:52:25;4.72;;;1.30;;
54871;SDS011;43914;57.680;11.982;2022-09-09T03:54:52;5.00;;;1.60;;
54871;SDS011;43914;57.680;11.982;2022-09-09T03:57:19;5.92;;;1.62;;
54871;SDS011;43914;57.680;11.982;2022-09-09T03:59:46;5.45;;;1.50;;
54871;SDS011;43914;57.680;11.982;2022-09-09T04:02:13;5.28;;;1.57;;
54871;SDS011;43914;57.680;11.982;2022-09-09T04:04:41;3.90;;;1.15;;
54871;SDS011;43914;57.680;11.982;2022-09-09T04:07:07;4.83;;;1.42;;
54871;SDS011;43914;57.680;11.982;2022-09-09T04:09:33;4.00;;;1.40;;
54871;SDS011;43914;57.680;11.982;2022-09-09T04:12:00;5.70;;;1.30;;
54871;SDS011;43914;57.680;11.982;2022-09-09T04:14:26;5.62;;;1.60;;
54871;SDS011;43914;57.680;11.982;2022-09-09T04:16:54;5.12;;;1.45;;
54871;SDS011;43914;57.680;11.982;2022-09-09T04:19:22;5.08;;;1.50;;
54871;SDS011;43914;57.680;11.982;2022-09-09T04:21:48;3.47;;;1.12;;
54871;SDS011;43914;57.680;11.982;2022-09-09T04:24:16;4.42;;;1.40;;
54871;SDS011;43914;57.680;11.982;2022-09-09T04:26:42;5.42;;;1.50;;
54871;SDS011;43914;57.680;11.982;2022-09-09T04:29:09;4.03;;;1.35;;
54871;SDS011;43914;57.680;11.982;2022-09-09T04:31:35;4.42;;;1.30;;
54871;SDS011;43914;57.680;11.982;2022-09-09T04:34:03;7.67;;;1.60;;
54871;SDS011;43914;57.680;11.982;2022-09-09T04:36:31;5.22;;;1.70;;
54871;SDS011;43914;57.680;11.982;2022-09-09T04:38:59;6.25;;;1.50;;
54871;SDS011;43914;57.680;11.982;2022-09-09T04:41:27;5.65;;;1.40;;
54871;SDS011;43914;57.680;11.982;2022-09-09T04:43:53;5.67;;;1.40;;
54871;SDS011;43914;57.680;11.982;2022-09-09T04:46:20;4.55;;;1.50;;
54871;SDS011;43914;57.680;11.982;2022-09-09T04:48:49;4.40;;;1.50;;
54871;SDS011;43914;57.680;11.982;2022-09-09T04:51:17;6.67;;;1.62;;
54871;SDS011;43914;57.680;11.982;2022-09-09T04:53:43;5.85;;;1.52;;
54871;SDS011;43914;57.680;11.982;2022-09-09T04:56:15;5.35;;;1.50;;
54871;SDS011;43914;57.680;11.982;2022-09-09T04:58:43;6.20;;;1.60;;
54871;SDS011;43914;57.680;11.982;2022-09-09T05:01:12;4.92;;;1.65;;
54871;SDS011;43914;57.680;11.982;2022-09-09T05:03:44;5.92;;;1.50;;
54871;SDS011;43914;57.680;11.982;2022-09-09T05:06:12;6.78;;;1.60;;
54871;SDS011;43914;57.680;11.982;2022-09-09T05:08:42;4.25;;;1.40;;
54871;SDS011;43914;57.680;11.982;2022-09-09T05:11:16;7.22;;;1.57;;
54871;SDS011;43914;57.680;11.982;2022-09-09T05:13:49;7.35;;;1.70;;
54871;SDS011;43914;57.680;11.982;2022-09-09T05:16:16;5.50;;;1.52;;
54871;SDS011;43914;57.680;11.982;2022-09-09T05:18:44;5.83;;;1.40;;
54871;SDS011;43914;57.680;11.982;2022-09-09T05:21:15;5.10;;;1.40;;
54871;SDS011;43914;57.680;11.982;2022-09-09T05:23:44;6.85;;;1.57;;
54871;SDS011;43914;57.680;11.982;2022-09-09T05:26:11;6.60;;;1.40;;
54871;SDS011;43914;57.680;11.982;2022-09-09T05:28:44;5.55;;;1.30;;
54871;SDS011;43914;57.680;11.982;2022-09-09T05:31:11;5.50;;;1.40;;
54871;SDS011;43914;57.680;11.982;2022-09-09T05:33:43;6.20;;;1.37;;
54871;SDS011;43914;57.680;11.982;2022-09-09T05:36:11;4.25;;;1.35;;
54871;SDS011;43914;57.680;11.982;2022-09-09T05:38:41;6.20;;;1.47;;
54871;SDS011;43914;57.680;11.982;2022-09-09T05:41:08;7.33;;;1.40;;
54871;SDS011;43914;57.680;11.982;2022-09-09T05:43:36;5.05;;;1.30;;
54871;SDS011;43914;57.680;11.982;2022-09-09T05:46:04;5.72;;;1.60;;
54871;SDS011;43914;57.680;11.982;2022-09-09T05:48:35;5.83;;;1.47;;
54871;SDS011;43914;57.680;11.982;2022-09-09T05:51:04;7.55;;;1.45;;
54871;SDS011;43914;57.680;11.982;2022-09-09T05:53:34;8.58;;;2.02;;
54871;SDS011;43914;57.680;11.982;2022-09-09T05:56:02;5.83;;;1.57;;
54871;SDS011;43914;57.680;11.982;2022-09-09T05:58:35;5.20;;;1.57;;
54871;SDS011;43914;57.680;11.982;2022-09-09T06:01:04;4.28;;;1.30;;
54871;SDS011;43914;57.680;11.982;2022-09-09T06:03:36;6.25;;;1.30;;
54871;SDS011;43914;57.680;11.982;2022-09-09T06:06:05;4.65;;;1.50;;
54871;SDS011;43914;57.680;11.982;2022-09-09T06:08:35;4.17;;;1.40;;
54871;SDS011;43914;57.680;11.982;2022-09-09T06:11:04;5.37;;;1.50;;
54871;SDS011;43914;57.680;11.982;2022-09-09T06:13:33;7.55;;;1.75;;
54871;SDS011;43914;57.680;11.982;2022-09-09T06:16:02;5.50;;;1.47;;
54871;SDS011;43914;57.680;11.982;2022-09-09T06:18:32;9.03;;;1.87;;
54871;SDS011;43914;57.680;11.982;2022-09-09T06:20:59;4.67;;;1.50;;
54871;SDS011;43914;57.680;11.982;2022-09-09T06:23:32;4.53;;;1.30;;
54871;SDS011;43914;57.680;11.982;2022-09-09T06:26:06;5.45;;;1.60;;
54871;SDS011;43914;57.680;11.982;2022-09-09T06:31:03;7.00;;;1.70;;
54871;SDS011;43914;57.680;11.982;2022-09-09T06:33:35;6.92;;;1.60;;
54871;SDS011;43914;57.680;11.982;2022-09-09T06:36:07;8.43;;;1.80;;
54871;SDS011;43914;57.680;11.982;2022-09-09T06:38:37;7.92;;;1.77;;
54871;SDS011;43914;57.680;11.982;2022-09-09T06:41:04;8.93;;;1.80;;
54871;SDS011;43914;57.680;11.982;2022-09-09T06:43:31;5.87;;;1.70;;
54871;SDS011;43914;57.680;11.982;2022-09-09T06:45:58;6.35;;;1.50;;
54871;SDS011;43914;57.680;11.982;2022-09-09T06:48:28;7.58;;;1.92;;
54871;SDS011;43914;57.680;11.982;2022-09-09T06:51:03;6.58;;;1.90;;
54871;SDS011;43914;57.680;11.982;2022-09-09T06:53:33;10.35;;;2.30;;
54871;SDS011;43914;57.680;11.982;2022-09-09T06:56:02;5.95;;;1.70;;
54871;SDS011;43914;57.680;11.982;2022-09-09T06:58:41;6.35;;;1.62;;
54871;SDS011;43914;57.680;11.982;2022-09-09T07:01:08;6.10;;;1.60;;
54871;SDS011;43914;57.680;11.982;2022-09-09T07:03:37;7.47;;;1.92;;
54871;SDS011;43914;57.680;11.982;2022-09-09T07:06:08;7.47;;;1.77;;
54871;SDS011;43914;57.680;11.982;2022-09-09T07:08:42;8.55;;;1.85;;
54871;SDS011;43914;57.680;11.982;2022-09-09T07:11:14;5.80;;;1.60;;
54871;SDS011;43914;57.680;11.982;2022-09-09T07:13:40;9.88;;;2.05;;
54871;SDS011;43914;57.680;11.982;2022-09-09T07:16:12;5.37;;;1.60;;
54871;SDS011;43914;57.680;11.982;2022-09-09T07:18:38;9.78;;;1.60;;
54871;SDS011;43914;57.680;11.982;2022-09-09T07:21:06;5.53;;;1.77;;
54871;SDS011;43914;57.680;11.982;2022-09-09T07:23:33;8.75;;;1.85;;
54871;SDS011;43914;57.680;11.982;2022-09-09T07:26:01;6.78;;;1.62;;
54871;SDS011;43914;57.680;11.982;2022-09-09T07:28:41;5.53;;;1.50;;
54871;SDS011;43914;57.680;11.982;2022-09-09T07:34:29;5.58;;;1.55;;
54871;SDS011;43914;57.680;11.982;2022-09-09T07:36:56;6.65;;;1.65;;
54871;SDS011;43914;57.680;11.982;2022-09-09T07:39:22;8.83;;;1.92;;
54871;SDS011;43914;57.680;11.982;2022-09-09T07:41:49;5.80;;;1.70;;
54871;SDS011;43914;57.680;11.982;2022-09-09T07:44:17;7.67;;;1.90;;
54871;SDS011;43914;57.680;11.982;2022-09-09T07:49:17;7.80;;;2.62;;
54871;SDS011;43914;57.680;11.982;2022-09-09T07:51:44;5.35;;;1.60;;
54871;SDS011;43914;57.680;11.982;2022-09-09T07:54:13;5.78;;;1.80;;
54871;SDS011;43914;57.680;11.982;2022-09-09T07:56:44;5.65;;;1.75;;
54871;SDS011;43914;57.680;11.982;2022-09-09T07:59:10;7.45;;;1.67;;
54871;SDS011;43914;57.680;11.982;2022-09-09T08:01:48;8.28;;;1.50;;
54871;SDS011;43914;57.680;11.982;2022-09-09T08:04:14;8.23;;;1.60;;
54871;SDS011;43914;57.680;11.982;2022-09-09T08:06:47;8.30;;;1.80;;
54871;SDS011;43914;57.680;11.982;2022-09-09T08:09:19;5.95;;;1.52;;
54871;SDS011;43914;57.680;11.982;2022-09-09T08:11:46;5.10;;;1.50;;
54871;SDS011;43914;57.680;11.982;2022-09-09T08:14:15;6.62;;;1.62;;
54871;SDS011;43914;57.680;11.982;2022-09-09T08:16:46;6.47;;;1.70;;
54871;SDS011;43914;57.680;11.982;2022-09-09T08:19:11;8.53;;;1.70;;
54871;SDS011;43914;57.680;11.982;2022-09-09T08:21:38;5.22;;;1.50;;
54871;SDS011;43914;57.680;11.982;2022-09-09T08:24:07;6.30;;;1.55;;
54871;SDS011;43914;57.680;11.982;2022-09-09T08:26:36;7.62;;;1.80;;
54871;SDS011;43914;57.680;11.982;2022-09-09T08:29:07;5.17;;;1.50;;
54871;SDS011;43914;57.680;11.982;2022-09-09T08:31:40;5.70;;;1.72;;
54871;SDS011;43914;57.680;11.982;2022-09-09T08:34:05;8.25;;;1.60;;
54871;SDS011;43914;57.680;11.982;2022-09-09T08:36:34;9.00;;;1.80;;
54871;SDS011;43914;57.680;11.982;2022-09-09T08:39:04;6.47;;;1.65;;
54871;SDS011;43914;57.680;11.982;2022-09-09T08:44:37;6.70;;;1.57;;
54871;SDS011;43914;57.680;11.982;2022-09-09T08:50:43;6.83;;;1.70;;
54871;SDS011;43914;57.680;11.982;2022-09-09T08:53:15;6.45;;;1.80;;
54871;SDS011;43914;57.680;11.982;2022-09-09T08:55:51;8.40;;;1.80;;
54871;SDS011;43914;57.680;11.982;2022-09-09T08:58:24;6.20;;;1.80;;
54871;SDS011;43914;57.680;11.982;2022-09-09T09:03:59;7.62;;;1.80;;
54871;SDS011;43914;57.680;11.982;2022-09-09T09:12:41;5.80;;;1.60;;
54871;SDS011;43914;57.680;11.982;2022-09-09T09:15:12;7.97;;;1.90;;
54871;SDS011;43914;57.680;11.982;2022-09-09T09:17:46;8.10;;;2.00;;
54871;SDS011;43914;57.680;11.982;2022-09-09T09:20:14;5.67;;;1.70;;
54871;SDS011;43914;57.680;11.982;2022-09-09T09:22:48;6.85;;;1.70;;
54871;SDS011;43914;57.680;11.982;2022-09-09T09:25:21;7.85;;;1.75;;
54871;SDS011;43914;57.680;11.982;2022-09-09T09:27:59;6.87;;;1.50;;
54871;SDS011;43914;57.680;11.982;2022-09-09T09:30:36;7.72;;;1.82;;
54871;SDS011;43914;57.680;11.982;2022-09-09T09:33:15;6.17;;;1.62;;
54871;SDS011;43914;57.680;11.982;2022-09-09T09:35:50;8.50;;;1.80;;
54871;SDS011;43914;57.680;11.982;2022-09-09T09:38:20;8.40;;;2.42;;
54871;SDS011;43914;57.680;11.982;2022-09-09T09:40:50;6.10;;;1.80;;
54871;SDS011;43914;57.680;11.982;2022-09-09T09:43:33;5.80;;;1.72;;
54871;SDS011;43914;57.680;11.982;2022-09-09T09:45:59;7.35;;;1.95;;
54871;SDS011;43914;57.680;11.982;2022-09-09T09:48:30;7.50;;;1.80;;
54871;SDS011;43914;57.680;11.982;2022-09-09T09:50:59;8.15;;;1.90;;
54871;SDS011;43914;57.680;11.982;2022-09-09T09:53:33;7.37;;;1.82;;
54871;SDS011;43914;57.680;11.982;2022-09-09T09:56:09;9.10;;;2.30;;
54871;SDS011;43914;57.680;11.982;2022-09-09T10:01:23;5.78;;;1.70;;
54871;SDS011;43914;57.680;11.982;2022-09-09T10:04:20;5.75;;;1.70;;
54871;SDS011;43914;57.680;11.982;2022-09-09T10:06:51;8.30;;;2.00;;
54871;SDS011;43914;57.680;11.982;2022-09-09T10:09:28;6.80;;;1.80;;
54871;SDS011;43914;57.680;11.982;2022-09-09T10:23:06;8.80;;;2.33;;
54871;SDS011;43914;57.680;11.982;2022-09-09T10:31:25;8.58;;;1.98;;
54871;SDS011;43914;57.680;11.982;2022-09-09T10:40:31;6.03;;;1.85;;
54871;SDS011;43914;57.680;11.982;2022-09-09T10:49:05;6.95;;;2.08;;
54871;SDS011;43914;57.680;11.982;2022-09-09T10:52:08;8.20;;;2.40;;
54871;SDS011;43914;57.680;11.982;2022-09-09T10:55:00;8.78;;;2.40;;
54871;SDS011;43914;57.680;11.982;2022-09-09T11:00:24;6.42;;;2.30;;
54871;SDS011;43914;57.680;11.982;2022-09-09T11:02:58;7.53;;;1.87;;
54871;SDS011;43914;57.680;11.982;2022-09-09T11:11:09;10.40;;;2.45;;
54871;SDS011;43914;57.680;11.982;2022-09-09T11:13:49;8.75;;;2.37;;
54871;SDS011;43914;57.680;11.982;2022-09-09T11:16:27;7.30;;;2.17;;
54871;SDS011;43914;57.680;11.982;2022-09-09T11:22:18;6.45;;;2.12;;
54871;SDS011;43914;57.680;11.982;2022-09-09T11:25:08;6.33;;;2.20;;
54871;SDS011;43914;57.680;11.982;2022-09-09T11:42:21;7.45;;;2.20;;
54871;SDS011;43914;57.680;11.982;2022-09-09T11:44:50;7.30;;;2.15;;
54871;SDS011;43914;57.680;11.982;2022-09-09T11:50:40;7.12;;;2.30;;
54871;SDS011;43914;57.680;11.982;2022-09-09T11:52:42;7.97;;;2.17;;
54871;SDS011;43914;57.680;11.982;2022-09-09T11:55:27;9.45;;;2.12;;
54871;SDS011;43914;57.680;11.982;2022-09-09T11:58:02;6.03;;;2.12;;
54871;SDS011;43914;57.680;11.982;2022-09-09T12:00:39;6.83;;;1.95;;
54871;SDS011;43914;57.680;11.982;2022-09-09T12:09:12;6.75;;;1.72;;
54871;SDS011;43914;57.680;11.982;2022-09-09T12:11:45;6.65;;;2.12;;
54871;SDS011;43914;57.680;11.982;2022-09-09T12:14:34;7.35;;;2.00;;
54871;SDS011;43914;57.680;11.982;2022-09-09T12:19:45;9.10;;;2.37;;
54871;SDS011;43914;57.680;11.982;2022-09-09T12:30:58;6.78;;;2.10;;
54871;SDS011;43914;57.680;11.982;2022-09-09T12:33:41;8.90;;;2.60;;
54871;SDS011;43914;57.680;11.982;2022-09-09T12:36:18;6.22;;;2.15;;
54871;SDS011;43914;57.680;11.982;2022-09-09T12:38:45;7.33;;;2.20;;
54871;SDS011;43914;57.680;11.982;2022-09-09T12:41:19;8.35;;;2.40;;
54871;SDS011;43914;57.680;11.982;2022-09-09T12:43:51;7.85;;;2.12;;
54871;SDS011;43914;57.680;11.982;2022-09-09T12:46:32;7.00;;;2.30;;
54871;SDS011;43914;57.680;11.982;2022-09-09T12:52:12;6.00;;;2.33;;
54871;SDS011;43914;57.680;11.982;2022-09-09T12:54:46;6.87;;;2.20;;
54871;SDS011;43914;57.680;11.982;2022-09-09T12:57:13;7.08;;;2.30;;
54871;SDS011;43914;57.680;11.982;2022-09-09T12:59:43;6.92;;;2.30;;
54871;SDS011;43914;57.680;11.982;2022-09-09T13:02:22;10.30;;;2.42;;
54871;SDS011;43914;57.680;11.982;2022-09-09T13:04:53;8.00;;;2.62;;
54871;SDS011;43914;57.680;11.982;2022-09-09T13:07:21;7.92;;;2.30;;
54871;SDS011;43914;57.680;11.982;2022-09-09T13:09:47;11.03;;;2.67;;
54871;SDS011;43914;57.680;11.982;2022-09-09T13:12:16;7.42;;;2.12;;
54871;SDS011;43914;57.680;11.982;2022-09-09T13:14:51;9.48;;;2.62;;
54871;SDS011;43914;57.680;11.982;2022-09-09T13:17:21;10.35;;;2.87;;
54871;SDS011;43914;57.680;11.982;2022-09-09T13:19:50;10.53;;;2.45;;
54871;SDS011;43914;57.680;11.982;2022-09-09T13:24:59;7.00;;;2.33;;
54871;SDS011;43914;57.680;11.982;2022-09-09T13:30:19;8.20;;;2.47;;
54871;SDS011;43914;57.680;11.982;2022-09-09T13:35:55;8.73;;;2.50;;
54871;SDS011;43914;57.680;11.982;2022-09-09T13:38:29;8.15;;;2.42;;
54871;SDS011;43914;57.680;11.982;2022-09-09T13:41:02;9.60;;;2.55;;
54871;SDS011;43914;57.680;11.982;2022-09-09T13:46:30;6.85;;;2.40;;
54871;SDS011;43914;57.680;11.982;2022-09-09T13:51:46;7.35;;;2.17;;
54871;SDS011;43914;57.680;11.982;2022-09-09T13:54:19;6.78;;;2.35;;
54871;SDS011;43914;57.680;11.982;2022-09-09T13:56:46;6.40;;;1.92;;
54871;SDS011;43914;57.680;11.982;2022-09-09T13:59:16;6.62;;;2.15;;
54871;SDS011;43914;57.680;11.982;2022-09-09T14:01:49;6.15;;;1.95;;
54871;SDS011;43914;57.680;11.982;2022-09-09T14:04:17;6.03;;;2.00;;
54871;SDS011;43914;57.680;11.982;2022-09-09T14:06:46;7.05;;;2.17;;
54871;SDS011;43914;57.680;11.982;2022-09-09T14:09:13;7.40;;;2.05;;
54871;SDS011;43914;57.680;11.982;2022-09-09T14:11:46;6.72;;;2.10;;
54871;SDS011;43914;57.680;11.982;2022-09-09T14:14:13;7.60;;;1.98;;
54871;SDS011;43914;57.680;11.982;2022-09-09T14:16:43;5.62;;;2.00;;
54871;SDS011;43914;57.680;11.982;2022-09-09T14:19:13;6.40;;;1.90;;
54871;SDS011;43914;57.680;11.982;2022-09-09T14:21:39;7.00;;;2.10;;
54871;SDS011;43914;57.680;11.982;2022-09-09T14:24:05;6.58;;;2.15;;
54871;SDS011;43914;57.680;11.982;2022-09-09T14:26:32;6.37;;;1.70;;
54871;SDS011;43914;57.680;11.982;2022-09-09T14:28:58;7.55;;;2.00;;
54871;SDS011;43914;57.680;11.982;2022-09-09T14:31:28;9.93;;;2.10;;
54871;SDS011;43914;57.680;11.982;2022-09-09T14:33:55;6.67;;;1.90;;
54871;SDS011;43914;57.680;11.982;2022-09-09T14:36:21;6.47;;;2.00;;
54871;SDS011;43914;57.680;11.982;2022-09-09T14:38:49;6.47;;;2.12;;
54871;SDS011;43914;57.680;11.982;2022-09-09T14:41:17;6.10;;;1.92;;
54871;SDS011;43914;57.680;11.982;2022-09-09T14:43:45;6.50;;;1.75;;
54871;SDS011;43914;57.680;11.982;2022-09-09T14:46:12;5.33;;;1.72;;
54871;SDS011;43914;57.680;11.982;2022-09-09T14:48:42;5.85;;;1.82;;
54871;SDS011;43914;57.680;11.982;2022-09-09T14:51:18;5.92;;;1.98;;
54871;SDS011;43914;57.680;11.982;2022-09-09T14:53:45;6.70;;;1.98;;
54871;SDS011;43914;57.680;11.982;2022-09-09T14:56:16;5.83;;;1.70;;
54871;SDS011;43914;57.680;11.982;2022-09-09T14:58:45;5.87;;;1.90;;
54871;SDS011;43914;57.680;11.982;2022-09-09T15:01:14;4.42;;;1.67;;
54871;SDS011;43914;57.680;11.982;2022-09-09T15:03:47;5.85;;;1.60;;
54871;SDS011;43914;57.680;11.982;2022-09-09T15:06:30;4.70;;;1.70;;
54871;SDS011;43914;57.680;11.982;2022-09-09T15:08:59;5.35;;;1.62;;
54871;SDS011;43914;57.680;11.982;2022-09-09T15:11:30;6.37;;;1.60;;
54871;SDS011;43914;57.680;11.982;2022-09-09T15:14:01;4.87;;;1.57;;
54871;SDS011;43914;57.680;11.982;2022-09-09T15:16:27;5.62;;;1.95;;
54871;SDS011;43914;57.680;11.982;2022-09-09T15:18:55;6.33;;;1.80;;
54871;SDS011;43914;57.680;11.982;2022-09-09T15:21:25;6.20;;;1.80;;
54871;SDS011;43914;57.680;11.982;2022-09-09T15:23:55;5.55;;;1.80;;
54871;SDS011;43914;57.680;11.982;2022-09-09T15:26:22;5.95;;;1.65;;
54871;SDS011;43914;57.680;11.982;2022-09-09T15:28:51;6.40;;;1.80;;
54871;SDS011;43914;57.680;11.982;2022-09-09T15:31:25;4.75;;;1.70;;
54871;SDS011;43914;57.680;11.982;2022-09-09T15:33:54;5.80;;;2.02;;
54871;SDS011;43914;57.680;11.982;2022-09-09T15:36:30;5.35;;;1.57;;
54871;SDS011;43914;57.680;11.982;2022-09-09T15:39:00;5.95;;;1.90;;
54871;SDS011;43914;57.680;11.982;2022-09-09T15:41:28;4.53;;;1.30;;
54871;SDS011;43914;57.680;11.982;2022-09-09T15:43:59;6.65;;;1.85;;
54871;SDS011;43914;57.680;11.982;2022-09-09T15:49:14;6.17;;;1.90;;
54871;SDS011;43914;57.680;11.982;2022-09-09T15:51:44;5.62;;;1.60;;
54871;SDS011;43914;57.680;11.982;2022-09-09T15:54:14;5.30;;;1.52;;
54871;SDS011;43914;57.680;11.982;2022-09-09T15:56:43;4.50;;;1.40;;
54871;SDS011;43914;57.680;11.982;2022-09-09T15:59:11;4.80;;;1.60;;
54871;SDS011;43914;57.680;11.982;2022-09-09T16:01:39;5.50;;;2.00;;
54871;SDS011;43914;57.680;11.982;2022-09-09T16:04:07;6.37;;;1.60;;
54871;SDS011;43914;57.680;11.982;2022-09-09T16:06:34;5.70;;;1.70;;
54871;SDS011;43914;57.680;11.982;2022-09-09T16:09:02;4.37;;;1.50;;
54871;SDS011;43914;57.680;11.982;2022-09-09T16:11:31;6.20;;;1.75;;
54871;SDS011;43914;57.680;11.982;2022-09-09T16:14:03;6.20;;;1.82;;
54871;SDS011;43914;57.680;11.982;2022-09-09T16:16:31;5.53;;;1.62;;
54871;SDS011;43914;57.680;11.982;2022-09-09T16:19:03;4.83;;;1.50;;
54871;SDS011;43914;57.680;11.982;2022-09-09T16:21:31;4.35;;;1.55;;
54871;SDS011;43914;57.680;11.982;2022-09-09T16:24:00;4.10;;;1.30;;
54871;SDS011;43914;57.680;11.982;2022-09-09T16:26:29;5.22;;;1.37;;
54871;SDS011;43914;57.680;11.982;2022-09-09T16:28:58;5.55;;;1.50;;
54871;SDS011;43914;57.680;11.982;2022-09-09T16:31:26;4.40;;;1.40;;
54871;SDS011;43914;57.680;11.982;2022-09-09T16:33:54;4.10;;;1.20;;
54871;SDS011;43914;57.680;11.982;2022-09-09T16:36:22;4.50;;;1.20;;
54871;SDS011;43914;57.680;11.982;2022-09-09T16:38:55;4.97;;;1.32;;
54871;SDS011;43914;57.680;11.982;2022-09-09T16:41:26;3.25;;;1.10;;
54871;SDS011;43914;57.680;11.982;2022-09-09T16:43:55;3.45;;;1.20;;
54871;SDS011;43914;57.680;11.982;2022-09-09T16:46:24;5.75;;;1.50;;
54871;SDS011;43914;57.680;11.982;2022-09-09T16:48:53;4.42;;;1.22;;
54871;SDS011;43914;57.680;11.982;2022-09-09T16:51:25;3.72;;;1.30;;
54871;SDS011;43914;57.680;11.982;2022-09-09T16:53:54;4.62;;;1.50;;
54871;SDS011;43914;57.680;11.982;2022-09-09T16:56:27;3.40;;;1.10;;
54871;SDS011;43914;57.680;11.982;2022-09-09T16:59:03;4.33;;;1.32;;
54871;SDS011;43914;57.680;11.982;2022-09-09T17:01:29;3.77;;;1.20;;
54871;SDS011;43914;57.680;11.982;2022-09-09T17:03:58;3.87;;;1.22;;
54871;SDS011;43914;57.680;11.982;2022-09-09T17:06:28;4.60;;;1.35;;
54871;SDS011;43914;57.680;11.982;2022-09-09T17:08:56;3.98;;;1.10;;
54871;SDS011;43914;57.680;11.982;2022-09-09T17:11:26;4.87;;;1.30;;
54871;SDS011;43914;57.680;11.982;2022-09-09T17:13:53;3.95;;;1.10;;
54871;SDS011;43914;57.680;11.982;2022-09-09T17:16:24;3.67;;;1.20;;
54871;SDS011;43914;57.680;11.982;2022-09-09T17:18:53;3.42;;;1.10;;
54871;SDS011;43914;57.680;11.982;2022-09-09T17:21:22;3.83;;;1.30;;
54871;SDS011;43914;57.680;11.982;2022-09-09T17:23:52;3.67;;;1.10;;
54871;SDS011;43914;57.680;11.982;2022-09-09T17:26:20;4.37;;;1.37;;
54871;SDS011;43914;57.680;11.982;2022-09-09T17:28:49;3.87;;;1.20;;
54871;SDS011;43914;57.680;11.982;2022-09-09T17:31:16;3.98;;;1.27;;
54871;SDS011;43914;57.680;11.982;2022-09-09T17:33:44;3.92;;;1.27;;
54871;SDS011;43914;57.680;11.982;2022-09-09T17:36:15;4.55;;;1.22;;
54871;SDS011;43914;57.680;11.982;2022-09-09T17:38:50;3.42;;;1.20;;
54871;SDS011;43914;57.680;11.982;2022-09-09T17:41:21;3.87;;;1.22;;
54871;SDS011;43914;57.680;11.982;2022-09-09T17:43:51;4.15;;;1.37;;
54871;SDS011;43914;57.680;11.982;2022-09-09T17:46:20;4.95;;;1.52;;
54871;SDS011;43914;57.680;11.982;2022-09-09T17:48:51;3.98;;;1.42;;
54871;SDS011;43914;57.680;11.982;2022-09-09T17:51:24;4.23;;;1.30;;